createdAt,value
2023-06-29T00:03:07.736Z,15.25
2023-06-29T00:08:10.916Z,15.34
2023-06-29T00:13:12.732Z,15.44
2023-06-29T00:18:19.680Z,15.56
2023-06-29T00:23:21.409Z,15.68
2023-06-29T00:28:23.245Z,15.77
2023-06-29T00:33:25.212Z,15.84
2023-06-29T00:38:27.392Z,15.90
2023-06-29T00:43:29.480Z,15.95
2023-06-29T00:48:31.456Z,15.99
2023-06-29T00:53:33.640Z,16.03
2023-06-29T00:58:36.335Z,16.06
2023-06-29T01:03:39.318Z,16.10
2023-06-29T01:08:46.781Z,16.12
2023-06-29T01:13:51.735Z,16.13
2023-06-29T01:18:55.951Z,16.13
2023-06-29T01:23:59.757Z,16.12
2023-06-29T01:29:01.631Z,16.13
2023-06-29T01:34:03.361Z,16.16
2023-06-29T01:39:16.746Z,16.21
2023-06-29T01:44:19.650Z,16.27
2023-06-29T01:49:21.729Z,16.33
2023-06-29T01:54:23.609Z,16.37
2023-06-29T01:59:26.097Z,16.41
2023-06-29T02:04:28.189Z,16.43
2023-06-29T02:09:30.362Z,16.46
2023-06-29T02:14:32.139Z,16.49
2023-06-29T02:19:33.954Z,16.53
2023-06-29T02:24:35.918Z,16.55
2023-06-29T02:29:38.204Z,16.56
2023-06-29T02:34:40.200Z,16.56
2023-06-29T02:39:42.145Z,16.56
2023-06-29T02:44:44.220Z,16.56
2023-06-29T02:49:46.096Z,16.55
2023-06-29T02:54:48.083Z,16.56
2023-06-29T02:59:49.852Z,16.56
2023-06-29T03:04:52.135Z,16.56
2023-06-29T03:09:53.929Z,16.57
2023-06-29T03:14:55.682Z,16.57
2023-06-29T03:19:57.673Z,16.57
2023-06-29T03:24:59.542Z,16.63
2023-06-29T03:30:01.453Z,16.78
2023-06-29T03:35:04.734Z,16.98
2023-06-29T03:40:08.045Z,17.30
2023-06-29T03:45:10.549Z,17.99
2023-06-29T03:50:12.556Z,18.69
2023-06-29T03:55:14.703Z,19.40
2023-06-29T04:00:17.293Z,19.76
2023-06-29T04:05:19.168Z,19.65
2023-06-29T04:10:21.366Z,19.59
2023-06-29T04:15:23.336Z,19.53
2023-06-29T04:20:25.421Z,19.68
2023-06-29T04:25:27.500Z,20.25
2023-06-29T04:30:29.382Z,20.94
2023-06-29T04:35:31.557Z,21.75
2023-06-29T04:40:33.436Z,23.02
2023-06-29T04:45:35.822Z,24.11
2023-06-29T04:50:38.422Z,25.25
2023-06-29T04:55:40.397Z,26.40
2023-06-29T05:00:42.271Z,27.40
2023-06-29T05:05:45.499Z,28.35
2023-06-29T05:10:47.668Z,29.20
2023-06-29T05:15:49.544Z,30.00
2023-06-29T05:20:51.274Z,30.72
2023-06-29T05:25:53.206Z,31.56
2023-06-29T05:30:55.073Z,32.30
2023-06-29T05:35:56.969Z,32.58
2023-06-29T05:41:01.444Z,32.55
2023-06-29T05:46:04.954Z,32.81
2023-06-29T05:51:07.595Z,33.53
2023-06-29T05:56:09.881Z,34.18
2023-06-29T06:01:12.578Z,34.26
2023-06-29T06:06:14.869Z,33.14
2023-06-29T06:11:16.746Z,32.07
2023-06-29T06:16:19.693Z,31.91
2023-06-29T06:21:21.731Z,33.00
2023-06-29T06:26:23.627Z,34.03
2023-06-29T06:31:33.635Z,34.73
2023-06-29T06:36:37.188Z,34.51
2023-06-29T06:41:39.224Z,34.99
2023-06-29T06:46:41.322Z,35.81
2023-06-29T06:51:43.740Z,36.46
2023-06-29T06:56:45.714Z,37.09
2023-06-29T07:01:48.316Z,37.72
2023-06-29T07:06:50.227Z,38.36
2023-06-29T07:11:52.274Z,38.42
2023-06-29T07:16:55.729Z,38.95
2023-06-29T07:27:02.692Z,39.69
2023-06-29T07:32:05.635Z,40.36
2023-06-29T07:37:08.207Z,41.19
2023-06-29T07:42:10.107Z,41.83
2023-06-29T07:47:12.102Z,41.82
2023-06-29T07:52:14.251Z,41.85
2023-06-29T08:02:21.693Z,42.02
2023-06-29T08:07:24.074Z,42.25
2023-06-29T08:12:26.066Z,42.38
2023-06-29T08:17:30.826Z,42.54
2023-06-29T08:22:32.788Z,42.82
2023-06-29T08:27:36.408Z,42.93
2023-06-29T08:32:38.420Z,42.86
2023-06-29T08:37:40.688Z,42.90
2023-06-29T08:42:43.165Z,42.97
2023-06-29T08:47:51.895Z,43.10
2023-06-29T08:52:55.468Z,43.35
2023-06-29T08:57:57.833Z,43.76
2023-06-29T09:03:00.638Z,43.00
2023-06-29T09:08:03.501Z,41.25
2023-06-29T09:13:06.939Z,40.97
2023-06-29T09:18:09.147Z,41.49
2023-06-29T09:23:13.654Z,41.97
2023-06-29T09:28:15.831Z,42.39
2023-06-29T09:33:19.298Z,42.60
2023-06-29T09:38:21.119Z,41.36
2023-06-29T09:43:28.480Z,38.36
2023-06-29T09:53:37.810Z,35.87
2023-06-29T09:58:40.509Z,34.83
2023-06-29T10:03:42.706Z,33.53
2023-06-29T10:08:50.914Z,33.75
2023-06-29T10:13:55.254Z,34.49
2023-06-29T10:19:04.355Z,34.84
2023-06-29T10:24:07.378Z,34.66
2023-06-29T10:29:10.225Z,33.48
2023-06-29T10:34:14.031Z,32.15
2023-06-29T10:39:41.307Z,31.44
2023-06-29T10:44:47.524Z,31.00
2023-06-29T10:49:57.141Z,30.94
2023-06-29T10:55:13.555Z,30.85
2023-06-29T11:00:16.755Z,30.81
2023-06-29T11:05:20.624Z,30.89
2023-06-29T11:10:23.284Z,31.08
2023-06-29T11:15:28.131Z,30.93
2023-06-29T11:20:30.721Z,31.04
2023-06-29T11:25:33.249Z,31.32
2023-06-29T11:30:40.336Z,31.30
2023-06-29T11:35:44.089Z,31.22
2023-06-29T11:40:46.015Z,31.25
2023-06-29T11:45:49.629Z,31.21
2023-06-29T11:50:51.824Z,31.23
2023-06-29T11:55:55.342Z,31.25
2023-06-29T12:00:57.598Z,31.20
2023-06-29T12:06:01.347Z,31.12
2023-06-29T12:11:04.306Z,31.16
2023-06-29T12:21:18.126Z,31.33
2023-06-29T12:26:21.951Z,31.12
2023-06-29T12:31:30.331Z,30.56
2023-06-29T12:36:33.896Z,30.14
2023-06-29T12:41:36.116Z,30.07
2023-06-29T12:46:38.116Z,30.07
2023-06-29T12:51:40.251Z,29.85
2023-06-29T12:56:42.945Z,29.49
2023-06-29T13:01:45.245Z,29.30
2023-06-29T13:06:47.230Z,29.26
2023-06-29T13:11:49.195Z,29.19
2023-06-29T13:16:51.404Z,29.35
2023-06-29T13:21:56.774Z,29.51
2023-06-29T13:26:59.122Z,29.79
2023-06-29T13:32:01.102Z,30.08
2023-06-29T13:37:03.697Z,30.25
2023-06-29T13:42:10.586Z,30.12
2023-06-29T13:47:18.584Z,29.99
2023-06-29T13:52:20.486Z,29.74
2023-06-29T13:57:23.648Z,29.36
2023-06-29T14:02:28.652Z,29.16
2023-06-29T14:07:30.807Z,29.09
2023-06-29T14:12:33.939Z,28.93
2023-06-29T14:17:36.808Z,28.85
2023-06-29T14:22:39.671Z,28.83
2023-06-29T14:27:42.180Z,28.67
2023-06-29T14:32:44.648Z,28.61
2023-06-29T14:37:46.904Z,28.48
2023-06-29T14:42:48.893Z,28.16
2023-06-29T14:47:50.907Z,27.70
2023-06-29T14:52:52.951Z,27.36
2023-06-29T14:57:54.823Z,27.27
2023-06-29T15:02:56.634Z,27.36
2023-06-29T15:07:58.621Z,27.68
2023-06-29T15:13:00.667Z,27.90
2023-06-29T15:18:02.705Z,27.95
2023-06-29T15:23:04.624Z,27.88
2023-06-29T15:28:09.367Z,27.80
2023-06-29T15:33:11.504Z,27.70
2023-06-29T15:38:14.246Z,27.59
2023-06-29T15:43:18.709Z,27.37
2023-06-29T15:48:21.850Z,27.11
2023-06-29T15:53:24.395Z,26.89
2023-06-29T15:58:27.850Z,26.73
2023-06-29T16:03:29.994Z,26.54
2023-06-29T16:08:32.092Z,26.31
2023-06-29T16:13:34.079Z,26.07
2023-06-29T16:18:35.917Z,25.86
2023-06-29T16:23:38.621Z,25.67
2023-06-29T16:28:40.712Z,25.48
2023-06-29T16:33:43.605Z,25.34
2023-06-29T16:38:46.101Z,25.21
2023-06-29T16:43:53.127Z,25.09
2023-06-29T16:48:57.841Z,24.99
2023-06-29T16:53:59.817Z,24.85
2023-06-29T16:59:02.003Z,24.73
2023-06-29T17:04:04.285Z,24.62
2023-06-29T17:09:06.273Z,24.46
2023-06-29T17:14:08.253Z,24.22
2023-06-29T17:19:11.294Z,24.03
2023-06-29T17:24:13.332Z,23.81
2023-06-29T17:29:15.821Z,23.56
2023-06-29T17:34:18.410Z,23.39
2023-06-29T17:39:22.335Z,23.24
2023-06-29T17:44:24.484Z,23.11
2023-06-29T17:49:27.318Z,22.92
2023-06-29T17:54:29.617Z,22.75
2023-06-29T17:59:31.997Z,22.57
2023-06-29T18:04:34.139Z,22.40
2023-06-29T18:09:36.569Z,22.23
2023-06-29T18:14:38.857Z,22.07
2023-06-29T18:19:40.732Z,21.88
2023-06-29T18:24:42.718Z,21.72
2023-06-29T18:29:45.221Z,21.54
2023-06-29T18:34:48.107Z,21.36
2023-06-29T18:39:49.880Z,21.19
2023-06-29T18:44:53.086Z,20.99
2023-06-29T18:49:56.399Z,20.78
2023-06-29T18:55:01.673Z,20.57
2023-06-29T19:00:04.396Z,20.39
2023-06-29T19:05:08.432Z,20.19
2023-06-29T19:10:12.004Z,20.00
2023-06-29T19:15:14.912Z,19.83
2023-06-29T19:20:18.212Z,19.66
2023-06-29T19:25:20.193Z,19.51
2023-06-29T19:30:22.182Z,19.36
2023-06-29T19:35:24.979Z,19.20
2023-06-29T19:40:28.411Z,19.03
2023-06-29T19:45:31.354Z,18.87
2023-06-29T19:50:33.889Z,18.70
2023-06-29T19:55:36.275Z,18.53
2023-06-29T20:00:38.139Z,18.36
2023-06-29T20:05:41.435Z,18.18
2023-06-29T20:10:43.546Z,17.99
2023-06-29T20:15:46.554Z,17.82
2023-06-29T20:20:48.628Z,17.66
2023-06-29T20:25:51.940Z,17.51
2023-06-29T20:30:55.153Z,17.35
2023-06-29T20:35:58.058Z,17.19
2023-06-29T20:41:00.737Z,17.02
2023-06-29T20:46:03.197Z,16.88
2023-06-29T20:51:16.881Z,16.73
2023-06-29T20:56:21.117Z,16.62
2023-06-29T21:01:24.418Z,16.56
2023-06-29T21:06:26.920Z,16.48
2023-06-29T21:11:31.338Z,16.39
2023-06-29T21:16:34.886Z,16.28
2023-06-29T21:21:37.359Z,16.17
2023-06-29T21:26:39.359Z,16.08
2023-06-29T21:31:42.656Z,16.03
2023-06-29T21:36:45.042Z,16.00
2023-06-29T21:41:47.324Z,15.96
2023-06-29T21:46:49.618Z,15.92
2023-06-29T21:51:51.846Z,15.84
2023-06-29T21:56:54.552Z,15.73
2023-06-29T22:01:57.316Z,15.61
2023-06-29T22:07:11.676Z,15.50
2023-06-29T22:12:17.738Z,15.42
2023-06-29T22:17:20.438Z,15.35
2023-06-29T22:22:22.208Z,15.30
2023-06-29T22:27:23.882Z,15.22
2023-06-29T22:32:25.984Z,15.12
2023-06-29T22:37:28.148Z,15.04
2023-06-29T22:42:30.332Z,14.95
2023-06-29T22:47:32.461Z,14.87
2023-06-29T22:52:34.499Z,14.81
2023-06-29T22:57:36.479Z,14.74
2023-06-29T23:02:38.818Z,14.67
2023-06-29T23:07:44.119Z,14.61
2023-06-29T23:12:48.562Z,14.57
2023-06-29T23:17:50.376Z,14.54
2023-06-29T23:22:52.895Z,14.51
2023-06-29T23:27:54.901Z,14.46
2023-06-29T23:32:56.683Z,14.41
2023-06-29T23:37:58.863Z,14.36
2023-06-29T23:43:05.705Z,14.32
2023-06-29T23:48:07.794Z,14.26
2023-06-29T23:53:09.616Z,14.21
2023-06-29T23:58:11.394Z,14.14
